sensor_id;sensor_type;location;lat;lon;timestamp;pressure;altitude;pressure_sealevel;temperature;humidity
23223;BME280;11780;13.904;100.620;2023-02-12T00:11:10;101155.31;;;29.57;74.42
23223;BME280;11780;13.904;100.620;2023-02-12T00:13:41;101162.66;;;29.62;73.79
23223;BME280;11780;13.904;100.620;2023-02-12T00:16:14;101163.78;;;29.61;74.07
23223;BME280;11780;13.904;100.620;2023-02-12T00:18:45;101166.44;;;29.66;74.08
23223;BME280;11780;13.904;100.620;2023-02-12T00:21:16;101163.38;;;29.68;73.91
23223;BME280;11780;13.904;100.620;2023-02-12T00:23:45;101175.94;;;29.74;73.97
23223;BME280;11780;13.904;100.620;2023-02-12T00:26:18;101175.94;;;29.74;73.58
23223;BME280;11780;13.904;100.620;2023-02-12T00:28:52;101169.50;;;29.78;73.43
23223;BME280;11780;13.904;100.620;2023-02-12T00:31:25;101174.50;;;29.76;73.23
23223;BME280;11780;13.904;100.620;2023-02-12T00:33:59;101172.97;;;29.84;73.13
23223;BME280;11780;13.904;100.620;2023-02-12T00:36:30;101182.56;;;29.87;73.25
23223;BME280;11780;13.904;100.620;2023-02-12T00:39:01;101190.84;;;29.87;73.07
23223;BME280;11780;13.904;100.620;2023-02-12T00:41:32;101188.91;;;29.87;73.18
23223;BME280;11780;13.904;100.620;2023-02-12T00:44:02;101196.69;;;29.85;73.37
23223;BME280;11780;13.904;100.620;2023-02-12T00:46:34;101197.81;;;29.84;73.13
23223;BME280;11780;13.904;100.620;2023-02-12T00:49:04;101201.34;;;29.85;73.41
23223;BME280;11780;13.904;100.620;2023-02-12T00:51:34;101203.00;;;29.86;73.18
23223;BME280;11780;13.904;100.620;2023-02-12T00:54:04;101210.34;;;29.90;73.05
23223;BME280;11780;13.904;100.620;2023-02-12T00:56:34;101205.16;;;29.89;73.08
23223;BME280;11780;13.904;100.620;2023-02-12T00:59:04;101222.22;;;29.91;72.92
23223;BME280;11780;13.904;100.620;2023-02-12T01:01:35;101225.78;;;29.91;73.07
23223;BME280;11780;13.904;100.620;2023-02-12T01:04:05;101226.91;;;29.90;73.08
23223;BME280;11780;13.904;100.620;2023-02-12T01:06:35;101232.13;;;29.92;72.81
23223;BME280;11780;13.904;100.620;2023-02-12T01:09:05;101229.59;;;29.96;72.97
23223;BME280;11780;13.904;100.620;2023-02-12T01:11:35;101229.03;;;29.93;72.63
23223;BME280;11780;13.904;100.620;2023-02-12T01:14:06;101233.66;;;29.98;73.03
23223;BME280;11780;13.904;100.620;2023-02-12T01:16:38;101246.44;;;29.94;72.89
23223;BME280;11780;13.904;100.620;2023-02-12T01:19:10;101243.66;;;29.94;72.47
23223;BME280;11780;13.904;100.620;2023-02-12T01:21:44;101246.44;;;29.94;72.22
23223;BME280;11780;13.904;100.620;2023-02-12T01:24:14;101247.22;;;29.95;72.30
23223;BME280;11780;13.904;100.620;2023-02-12T01:26:44;101244.78;;;29.93;72.53
23223;BME280;11780;13.904;100.620;2023-02-12T01:29:14;101247.84;;;29.91;72.44
23223;BME280;11780;13.904;100.620;2023-02-12T01:31:44;101256.44;;;29.90;72.58
23223;BME280;11780;13.904;100.620;2023-02-12T01:34:18;101257.34;;;29.85;72.32
23223;BME280;11780;13.904;100.620;2023-02-12T01:36:48;101254.78;;;29.89;71.83
23223;BME280;11780;13.904;100.620;2023-02-12T01:39:18;101255.81;;;29.93;71.92
23223;BME280;11780;13.904;100.620;2023-02-12T01:41:48;101267.09;;;29.97;71.68
23223;BME280;11780;13.904;100.620;2023-02-12T01:44:22;101272.28;;;29.98;71.78
23223;BME280;11780;13.904;100.620;2023-02-12T01:46:56;101269.75;;;30.02;71.62
23223;BME280;11780;13.904;100.620;2023-02-12T01:49:36;101274.16;;;30.03;71.72
23223;BME280;11780;13.904;100.620;2023-02-12T01:54:42;101282.53;;;30.12;71.76
23223;BME280;11780;13.904;100.620;2023-02-12T01:57:13;101287.75;;;30.13;71.70
23223;BME280;11780;13.904;100.620;2023-02-12T01:59:47;101291.31;;;30.14;71.78
23223;BME280;11780;13.904;100.620;2023-02-12T02:02:19;101290.69;;;30.17;71.37
23223;BME280;11780;13.904;100.620;2023-02-12T02:04:57;101290.69;;;30.17;71.09
23223;BME280;11780;13.904;100.620;2023-02-12T02:07:29;101301.66;;;30.22;70.42
23223;BME280;11780;13.904;100.620;2023-02-12T02:10:00;101301.66;;;30.22;70.44
23223;BME280;11780;13.904;100.620;2023-02-12T02:12:31;101299.50;;;30.19;69.99
23223;BME280;11780;13.904;100.620;2023-02-12T02:15:20;101303.81;;;30.25;70.06
23223;BME280;11780;13.904;100.620;2023-02-12T02:32:22;101312.06;;;30.53;69.12
23223;BME280;11780;13.904;100.620;2023-02-12T02:37:39;101316.19;;;30.56;68.77
23223;BME280;11780;13.904;100.620;2023-02-12T02:40:17;101320.38;;;30.67;69.46
23223;BME280;11780;13.904;100.620;2023-02-12T02:43:08;101325.50;;;30.74;69.60
23223;BME280;11780;13.904;100.620;2023-02-12T02:45:47;101327.31;;;30.78;67.93
23223;BME280;11780;13.904;100.620;2023-02-12T02:48:33;101324.84;;;30.77;67.80
23223;BME280;11780;13.904;100.620;2023-02-12T02:51:13;101319.34;;;30.77;67.49
23223;BME280;11780;13.904;100.620;2023-02-12T02:54:02;101327.41;;;30.87;67.72
23223;BME280;11780;13.904;100.620;2023-02-12T02:56:36;101330.38;;;30.91;68.22
23223;BME280;11780;13.904;100.620;2023-02-12T02:59:17;101324.03;;;30.90;67.76
23223;BME280;11780;13.904;100.620;2023-02-12T03:01:54;101327.78;;;30.94;67.63
23223;BME280;11780;13.904;100.620;2023-02-12T03:04:32;101325.25;;;30.98;67.13
23223;BME280;11780;13.904;100.620;2023-02-12T03:07:27;101325.53;;;30.96;67.29
23223;BME280;11780;13.904;100.620;2023-02-12T03:10:03;101320.22;;;31.00;67.58
23223;BME280;11780;13.904;100.620;2023-02-12T03:12:52;101317.16;;;31.02;67.04
23223;BME280;11780;13.904;100.620;2023-02-12T03:15:56;101320.41;;;31.04;67.12
23223;BME280;11780;13.904;100.620;2023-02-12T03:18:34;101319.66;;;31.12;66.91
23223;BME280;11780;13.904;100.620;2023-02-12T03:21:14;101311.38;;;31.12;66.66
23223;BME280;11780;13.904;100.620;2023-02-12T03:23:59;101315.09;;;31.21;66.52
23223;BME280;11780;13.904;100.620;2023-02-12T03:26:43;101312.94;;;31.18;66.51
23223;BME280;11780;13.904;100.620;2023-02-12T03:29:15;101305.44;;;31.19;66.90
23223;BME280;11780;13.904;100.620;2023-02-12T03:34:57;101301.25;;;31.21;66.97
23223;BME280;11780;13.904;100.620;2023-02-12T03:37:38;101300.00;;;31.27;67.23
23223;BME280;11780;13.904;100.620;2023-02-12T03:42:47;101293.72;;;31.36;66.42
23223;BME280;11780;13.904;100.620;2023-02-12T03:45:38;101288.06;;;31.41;66.02
23223;BME280;11780;13.904;100.620;2023-02-12T03:48:21;101285.63;;;31.39;66.13
23223;BME280;11780;13.904;100.620;2023-02-12T03:51:18;101278.44;;;31.38;66.06
23223;BME280;11780;13.904;100.620;2023-02-12T03:53:51;101282.28;;;31.51;66.03
23223;BME280;11780;13.904;100.620;2023-02-12T03:56:41;101284.28;;;31.59;65.26
23223;BME280;11780;13.904;100.620;2023-02-12T03:59:13;101277.44;;;31.57;65.00
23223;BME280;11780;13.904;100.620;2023-02-12T04:01:43;101273.59;;;31.67;64.94
23223;BME280;11780;13.904;100.620;2023-02-12T04:04:14;101271.47;;;31.64;65.05
23223;BME280;11780;13.904;100.620;2023-02-12T04:06:46;101262.63;;;31.76;64.67
23223;BME280;11780;13.904;100.620;2023-02-12T04:09:19;101253.75;;;31.65;64.48
23223;BME280;11780;13.904;100.620;2023-02-12T04:18:04;101245.31;;;31.70;64.40
23223;BME280;11780;13.904;100.620;2023-02-12T04:20:56;101243.38;;;31.70;64.57
23223;BME280;11780;13.904;100.620;2023-02-12T04:23:48;101237.38;;;31.77;64.35
23223;BME280;11780;13.904;100.620;2023-02-12T04:26:36;101243.72;;;31.78;64.27
23223;BME280;11780;13.904;100.620;2023-02-12T04:35:35;101225.41;;;31.91;63.43
23223;BME280;11780;13.904;100.620;2023-02-12T04:38:15;101214.03;;;32.01;64.05
23223;BME280;11780;13.904;100.620;2023-02-12T04:40:48;101210.31;;;31.97;63.57
23223;BME280;11780;13.904;100.620;2023-02-12T04:43:30;101199.25;;;31.97;63.48
23223;BME280;11780;13.904;100.620;2023-02-12T04:46:04;101198.78;;;32.03;63.09
23223;BME280;11780;13.904;100.620;2023-02-12T04:48:52;101192.06;;;31.96;63.21
23223;BME280;11780;13.904;100.620;2023-02-12T04:51:23;101194.16;;;31.90;63.02
23223;BME280;11780;13.904;100.620;2023-02-12T04:53:54;101188.94;;;31.88;63.38
23223;BME280;11780;13.904;100.620;2023-02-12T04:56:24;101185.22;;;31.84;63.41
23223;BME280;11780;13.904;100.620;2023-02-12T04:58:54;101181.75;;;31.79;63.60
23223;BME280;11780;13.904;100.620;2023-02-12T05:01:26;101177.19;;;31.74;63.73
23223;BME280;11780;13.904;100.620;2023-02-12T05:03:57;101174.09;;;31.76;64.25
23223;BME280;11780;13.904;100.620;2023-02-12T05:06:27;101165.34;;;31.82;63.48
23223;BME280;11780;13.904;100.620;2023-02-12T05:08:58;101167.59;;;31.80;63.48
23223;BME280;11780;13.904;100.620;2023-02-12T05:11:28;101169.53;;;31.80;63.33
23223;BME280;11780;13.904;100.620;2023-02-12T05:13:58;101157.19;;;31.77;63.67
23223;BME280;11780;13.904;100.620;2023-02-12T05:16:28;101159.94;;;31.77;63.55
23223;BME280;11780;13.904;100.620;2023-02-12T05:18:58;101152.66;;;31.81;62.96
23223;BME280;11780;13.904;100.620;2023-02-12T05:21:29;101144.00;;;31.83;62.93
23223;BME280;11780;13.904;100.620;2023-02-12T05:24:01;101129.88;;;31.84;62.97
23223;BME280;11780;13.904;100.620;2023-02-12T05:26:33;101126.91;;;31.81;63.16
23223;BME280;11780;13.904;100.620;2023-02-12T05:29:03;101125.78;;;31.82;63.03
23223;BME280;11780;13.904;100.620;2023-02-12T05:31:33;101124.69;;;31.92;62.71
23223;BME280;11780;13.904;100.620;2023-02-12T05:34:06;101115.25;;;31.93;62.13
23223;BME280;11780;13.904;100.620;2023-02-12T05:36:39;101118.69;;;32.07;61.95
23223;BME280;11780;13.904;100.620;2023-02-12T05:39:09;101117.91;;;32.15;61.40
23223;BME280;11780;13.904;100.620;2023-02-12T05:41:39;101110.41;;;32.16;61.37
23223;BME280;11780;13.904;100.620;2023-02-12T05:44:09;101107.97;;;32.14;61.50
23223;BME280;11780;13.904;100.620;2023-02-12T05:46:43;101101.44;;;32.19;61.27
23223;BME280;11780;13.904;100.620;2023-02-12T05:49:14;101094.28;;;32.18;61.54
23223;BME280;11780;13.904;100.620;2023-02-12T05:51:46;101090.69;;;32.17;61.26
23223;BME280;11780;13.904;100.620;2023-02-12T05:54:16;101085.63;;;32.19;61.40
23223;BME280;11780;13.904;100.620;2023-02-12T05:56:46;101078.97;;;32.20;61.26
23223;BME280;11780;13.904;100.620;2023-02-12T05:59:20;101073.31;;;32.26;61.23
23223;BME280;11780;13.904;100.620;2023-02-12T06:01:51;101075.44;;;32.29;60.78
23223;BME280;11780;13.904;100.620;2023-02-12T06:04:28;101066.31;;;32.28;61.03
23223;BME280;11780;13.904;100.620;2023-02-12T06:06:59;101054.56;;;32.23;60.82
23223;BME280;11780;13.904;100.620;2023-02-12T06:09:29;101055.56;;;32.36;60.24
23223;BME280;11780;13.904;100.620;2023-02-12T06:11:59;101053.94;;;32.34;60.03
23223;BME280;11780;13.904;100.620;2023-02-12T06:14:29;101054.25;;;32.33;60.62
23223;BME280;11780;13.904;100.620;2023-02-12T06:16:59;101045.78;;;32.29;60.66
23223;BME280;11780;13.904;100.620;2023-02-12T06:19:33;101032.09;;;32.33;60.27
23223;BME280;11780;13.904;100.620;2023-02-12T06:22:04;101031.13;;;32.38;60.41
23223;BME280;11780;13.904;100.620;2023-02-12T06:24:35;101027.03;;;32.44;60.06
23223;BME280;11780;13.904;100.620;2023-02-12T06:27:05;101023.28;;;32.48;59.56
23223;BME280;11780;13.904;100.620;2023-02-12T06:29:36;101016.81;;;32.44;59.48
23223;BME280;11780;13.904;100.620;2023-02-12T06:32:06;101020.72;;;32.43;60.11
23223;BME280;11780;13.904;100.620;2023-02-12T06:34:37;101022.81;;;32.46;59.83
23223;BME280;11780;13.904;100.620;2023-02-12T06:37:07;101007.81;;;32.47;59.34
23223;BME280;11780;13.904;100.620;2023-02-12T06:39:37;101005.22;;;32.51;59.57
23223;BME280;11780;13.904;100.620;2023-02-12T06:42:07;101002.13;;;32.44;59.76
23223;BME280;11780;13.904;100.620;2023-02-12T06:44:37;100995.44;;;32.45;59.71
23223;BME280;11780;13.904;100.620;2023-02-12T06:47:07;100991.69;;;32.41;60.34
23223;BME280;11780;13.904;100.620;2023-02-12T06:49:36;100984.38;;;32.45;60.49
23223;BME280;11780;13.904;100.620;2023-02-12T06:52:06;100985.34;;;32.49;60.36
23223;BME280;11780;13.904;100.620;2023-02-12T06:54:36;100974.75;;;32.51;60.53
23223;BME280;11780;13.904;100.620;2023-02-12T06:57:06;100969.53;;;32.49;60.70
23223;BME280;11780;13.904;100.620;2023-02-12T06:59:36;100971.34;;;32.54;60.45
23223;BME280;11780;13.904;100.620;2023-02-12T07:02:09;100966.25;;;32.56;59.84
23223;BME280;11780;13.904;100.620;2023-02-12T07:04:39;100954.72;;;32.54;59.40
23223;BME280;11780;13.904;100.620;2023-02-12T07:07:10;100962.84;;;32.50;59.37
23223;BME280;11780;13.904;100.620;2023-02-12T07:09:40;100953.56;;;32.55;59.44
23223;BME280;11780;13.904;100.620;2023-02-12T07:12:10;100949.00;;;32.59;59.03
23223;BME280;11780;13.904;100.620;2023-02-12T07:14:40;100953.75;;;32.50;59.53
23223;BME280;11780;13.904;100.620;2023-02-12T07:17:10;100948.03;;;32.55;59.57
23223;BME280;11780;13.904;100.620;2023-02-12T07:19:40;100936.13;;;32.55;59.27
23223;BME280;11780;13.904;100.620;2023-02-12T07:22:10;100941.19;;;32.53;59.44
23223;BME280;11780;13.904;100.620;2023-02-12T07:24:40;100926.69;;;32.56;59.14
23223;BME280;11780;13.904;100.620;2023-02-12T07:27:11;100922.47;;;32.49;59.36
23223;BME280;11780;13.904;100.620;2023-02-12T07:29:41;100933.19;;;32.60;59.51
23223;BME280;11780;13.904;100.620;2023-02-12T07:32:11;100921.50;;;32.54;59.42
23223;BME280;11780;13.904;100.620;2023-02-12T07:34:41;100918.72;;;32.54;59.63
23223;BME280;11780;13.904;100.620;2023-02-12T07:37:11;100920.00;;;32.57;59.41
23223;BME280;11780;13.904;100.620;2023-02-12T07:39:42;100915.75;;;32.59;58.71
23223;BME280;11780;13.904;100.620;2023-02-12T07:42:12;100912.63;;;32.70;58.36
23223;BME280;11780;13.904;100.620;2023-02-12T07:44:48;100903.16;;;32.71;58.58
23223;BME280;11780;13.904;100.620;2023-02-12T07:47:18;100905.00;;;32.67;58.75
23223;BME280;11780;13.904;100.620;2023-02-12T07:49:48;100898.47;;;32.62;59.00
23223;BME280;11780;13.904;100.620;2023-02-12T07:52:18;100900.16;;;32.55;59.16
23223;BME280;11780;13.904;100.620;2023-02-12T07:54:48;100885.50;;;32.54;59.68
23223;BME280;11780;13.904;100.620;2023-02-12T07:57:18;100882.72;;;32.54;59.89
23223;BME280;11780;13.904;100.620;2023-02-12T07:59:48;100880.63;;;32.51;59.69
23223;BME280;11780;13.904;100.620;2023-02-12T08:02:18;100883.66;;;32.58;59.86
23223;BME280;11780;13.904;100.620;2023-02-12T08:04:53;100883.31;;;32.69;59.06
23223;BME280;11780;13.904;100.620;2023-02-12T08:07:25;100890.13;;;32.71;58.74
23223;BME280;11780;13.904;100.620;2023-02-12T08:09:56;100874.66;;;32.70;58.86
23223;BME280;11780;13.904;100.620;2023-02-12T08:12:25;100868.25;;;32.78;58.08
23223;BME280;11780;13.904;100.620;2023-02-12T08:14:55;100866.66;;;32.77;58.68
23223;BME280;11780;13.904;100.620;2023-02-12T08:17:25;100868.47;;;32.73;58.84
23223;BME280;11780;13.904;100.620;2023-02-12T08:19:55;100865.69;;;32.73;58.62
23223;BME280;11780;13.904;100.620;2023-02-12T08:22:25;100866.66;;;32.77;58.43
23223;BME280;11780;13.904;100.620;2023-02-12T08:24:55;100868.47;;;32.73;58.52
23223;BME280;11780;13.904;100.620;2023-02-12T08:27:25;100867.16;;;32.71;58.73
23223;BME280;11780;13.904;100.620;2023-02-12T08:29:55;100867.97;;;32.71;58.60
23223;BME280;11780;13.904;100.620;2023-02-12T08:32:26;100864.91;;;32.64;58.68
23223;BME280;11780;13.904;100.620;2023-02-12T08:34:58;100870.44;;;32.64;58.76
23223;BME280;11780;13.904;100.620;2023-02-12T08:37:28;100863.28;;;32.63;58.62
23223;BME280;11780;13.904;100.620;2023-02-12T08:39:58;100867.69;;;32.64;58.68
23223;BME280;11780;13.904;100.620;2023-02-12T08:42:28;100867.00;;;32.67;58.53
23223;BME280;11780;13.904;100.620;2023-02-12T08:44:58;100872.75;;;32.62;58.53
23223;BME280;11780;13.904;100.620;2023-02-12T08:47:29;100868.38;;;32.61;58.67
23223;BME280;11780;13.904;100.620;2023-02-12T08:49:59;100870.13;;;32.65;58.31
23223;BME280;11780;13.904;100.620;2023-02-12T08:52:28;100869.31;;;32.65;58.01
23223;BME280;11780;13.904;100.620;2023-02-12T08:54:59;100867.00;;;32.67;58.07
23223;BME280;11780;13.904;100.620;2023-02-12T08:57:29;100862.66;;;32.57;58.74
23223;BME280;11780;13.904;100.620;2023-02-12T08:59:59;100868.50;;;32.64;58.28
23223;BME280;11780;13.904;100.620;2023-02-12T09:02:30;100868.97;;;32.67;58.00
23223;BME280;11780;13.904;100.620;2023-02-12T09:05:00;100870.28;;;32.69;58.15
23223;BME280;11780;13.904;100.620;2023-02-12T09:07:29;100867.84;;;32.68;58.22
23223;BME280;11780;13.904;100.620;2023-02-12T09:09:59;100861.78;;;32.74;57.26
23223;BME280;11780;13.904;100.620;2023-02-12T09:12:30;100873.19;;;32.73;56.79
23223;BME280;11780;13.904;100.620;2023-02-12T09:15:00;100868.13;;;32.75;57.11
23223;BME280;11780;13.904;100.620;2023-02-12T09:17:30;100866.34;;;32.70;57.27
23223;BME280;11780;13.904;100.620;2023-02-12T09:20:00;100869.81;;;32.58;57.50
23223;BME280;11780;13.904;100.620;2023-02-12T09:22:31;100873.06;;;32.60;57.78
23223;BME280;11780;13.904;100.620;2023-02-12T09:25:05;100865.91;;;32.59;57.37
23223;BME280;11780;13.904;100.620;2023-02-12T09:27:35;100873.72;;;32.57;57.50
23223;BME280;11780;13.904;100.620;2023-02-12T09:30:06;100867.72;;;32.55;56.89
23223;BME280;11780;13.904;100.620;2023-02-12T09:32:37;100870.00;;;32.62;56.68
23223;BME280;11780;13.904;100.620;2023-02-12T09:35:07;100872.09;;;32.56;57.02
23223;BME280;11780;13.904;100.620;2023-02-12T09:37:38;100875.53;;;32.62;56.67
23223;BME280;11780;13.904;100.620;2023-02-12T09:40:17;100877.97;;;32.63;56.97
23223;BME280;11780;13.904;100.620;2023-02-12T09:45:54;100880.75;;;32.55;56.83
23223;BME280;11780;13.904;100.620;2023-02-12T09:48:41;100867.41;;;32.57;57.11
23223;BME280;11780;13.904;100.620;2023-02-12T09:51:14;100880.75;;;32.55;56.91
23223;BME280;11780;13.904;100.620;2023-02-12T09:53:47;100872.59;;;32.58;56.44
23223;BME280;11780;13.904;100.620;2023-02-12T09:56:20;100876.34;;;32.62;56.30
23223;BME280;11780;13.904;100.620;2023-02-12T09:59:04;100871.31;;;32.56;56.50
23223;BME280;11780;13.904;100.620;2023-02-12T10:01:34;100866.41;;;32.61;56.04
23223;BME280;11780;13.904;100.620;2023-02-12T10:04:05;100870.97;;;32.57;55.96
23223;BME280;11780;13.904;100.620;2023-02-12T10:06:42;100878.00;;;32.55;56.25
23223;BME280;11780;13.904;100.620;2023-02-12T10:09:37;100874.09;;;32.56;55.78
23223;BME280;11780;13.904;100.620;2023-02-12T10:21:44;100872.75;;;32.62;55.88
23223;BME280;11780;13.904;100.620;2023-02-12T10:25:02;100877.81;;;32.60;55.99
23223;BME280;11780;13.904;100.620;2023-02-12T10:27:42;100883.53;;;32.55;56.23
23223;BME280;11780;13.904;100.620;2023-02-12T10:30:34;100879.78;;;32.50;56.27
23223;BME280;11780;13.904;100.620;2023-02-12T10:42:14;100890.38;;;32.48;55.17
23223;BME280;11780;13.904;100.620;2023-02-12T10:44:45;100901.47;;;32.48;55.16
23223;BME280;11780;13.904;100.620;2023-02-12T10:47:19;100906.69;;;32.50;55.22
23223;BME280;11780;13.904;100.620;2023-02-12T10:49:59;100893.84;;;32.45;54.97
23223;BME280;11780;13.904;100.620;2023-02-12T10:52:40;100892.69;;;32.46;54.67
23223;BME280;11780;13.904;100.620;2023-02-12T10:55:32;100900.66;;;32.48;54.79
23223;BME280;11780;13.904;100.620;2023-02-12T10:58:04;100908.50;;;32.37;55.00
23223;BME280;11780;13.904;100.620;2023-02-12T11:00:46;100899.06;;;32.38;55.03
23223;BME280;11780;13.904;100.620;2023-02-12T11:03:21;100903.94;;;32.41;54.80
23223;BME280;11780;13.904;100.620;2023-02-12T11:05:52;100902.47;;;32.35;54.85
23223;BME280;11780;13.904;100.620;2023-02-12T11:08:35;100903.97;;;32.32;54.64
23223;BME280;11780;13.904;100.620;2023-02-12T11:11:19;100909.47;;;32.41;54.42
23223;BME280;11780;13.904;100.620;2023-02-12T11:14:02;100913.91;;;32.33;54.43
23223;BME280;11780;13.904;100.620;2023-02-12T11:16:36;100908.22;;;32.30;54.20
23223;BME280;11780;13.904;100.620;2023-02-12T11:19:23;100904.31;;;32.31;54.39
23223;BME280;11780;13.904;100.620;2023-02-12T11:22:13;100911.28;;;32.28;54.78
23223;BME280;11780;13.904;100.620;2023-02-12T11:25:00;100917.78;;;32.24;54.59
23223;BME280;11780;13.904;100.620;2023-02-12T11:27:31;100912.59;;;32.22;54.97
23223;BME280;11780;13.904;100.620;2023-02-12T11:30:13;100927.56;;;32.21;55.31
23223;BME280;11780;13.904;100.620;2023-02-12T11:32:45;100924.31;;;32.19;55.59
23223;BME280;11780;13.904;100.620;2023-02-12T11:35:18;100920.25;;;32.16;56.21
23223;BME280;11780;13.904;100.620;2023-02-12T11:37:56;100921.41;;;32.15;56.24
23223;BME280;11780;13.904;100.620;2023-02-12T11:40:29;100923.19;;;32.11;56.52
23223;BME280;11780;13.904;100.620;2023-02-12T11:43:06;100928.59;;;32.08;56.48
23223;BME280;11780;13.904;100.620;2023-02-12T11:45:48;100927.75;;;32.07;56.27
23223;BME280;11780;13.904;100.620;2023-02-12T11:48:34;100929.06;;;32.01;56.63
23223;BME280;11780;13.904;100.620;2023-02-12T11:51:09;100933.94;;;31.95;57.03
23223;BME280;11780;13.904;100.620;2023-02-12T11:53:51;100938.34;;;31.96;57.40
23223;BME280;11780;13.904;100.620;2023-02-12T11:56:23;100940.63;;;31.94;57.36
23223;BME280;11780;13.904;100.620;2023-02-12T11:59:44;100943.72;;;31.93;57.90
23223;BME280;11780;13.904;100.620;2023-02-12T12:02:29;100949.59;;;32.00;58.21
23223;BME280;11780;13.904;100.620;2023-02-12T12:05:12;100947.63;;;31.92;58.50
23223;BME280;11780;13.904;100.620;2023-02-12T12:07:56;100951.53;;;31.91;58.87
23223;BME280;11780;13.904;100.620;2023-02-12T12:13:45;100953.16;;;31.92;59.32
23223;BME280;11780;13.904;100.620;2023-02-12T12:16:24;100952.19;;;31.87;59.21
23223;BME280;11780;13.904;100.620;2023-02-12T12:19:23;100952.84;;;31.84;59.43
23223;BME280;11780;13.904;100.620;2023-02-12T12:22:19;100951.03;;;31.80;59.52
23223;BME280;11780;13.904;100.620;2023-02-12T12:24:58;100956.41;;;31.76;58.99
23223;BME280;11780;13.904;100.620;2023-02-12T12:27:52;100966.81;;;31.70;59.12
23223;BME280;11780;13.904;100.620;2023-02-12T12:33:49;100973.31;;;31.66;58.80
23223;BME280;11780;13.904;100.620;2023-02-12T12:36:42;100971.97;;;31.63;59.13
23223;BME280;11780;13.904;100.620;2023-02-12T13:14:41;101003.31;;;31.32;61.68
23223;BME280;11780;13.904;100.620;2023-02-12T13:17:18;101011.09;;;31.30;61.69
23223;BME280;11780;13.904;100.620;2023-02-12T13:22:34;101022.03;;;31.44;61.66
23223;BME280;11780;13.904;100.620;2023-02-12T13:25:19;101035.38;;;31.42;62.10
23223;BME280;11780;13.904;100.620;2023-02-12T13:27:52;101035.88;;;31.44;61.92
23223;BME280;11780;13.904;100.620;2023-02-12T13:30:28;101034.56;;;31.41;61.92
23223;BME280;11780;13.904;100.620;2023-02-12T13:35:30;101040.13;;;31.50;62.15
23223;BME280;11780;13.904;100.620;2023-02-12T13:38:02;101037.34;;;31.50;62.63
23223;BME280;11780;13.904;100.620;2023-02-12T13:40:33;101041.41;;;31.53;63.17
23223;BME280;11780;13.904;100.620;2023-02-12T13:56:48;101064.19;;;31.58;63.30
23223;BME280;11780;13.904;100.620;2023-02-12T14:07:48;101063.88;;;31.51;63.36
23223;BME280;11780;13.904;100.620;2023-02-12T14:10:23;101059.47;;;31.50;63.72
23223;BME280;11780;13.904;100.620;2023-02-12T14:13:44;101068.41;;;31.47;63.84
23223;BME280;11780;13.904;100.620;2023-02-12T14:15:53;101065.47;;;31.43;63.63
23223;BME280;11780;13.904;100.620;2023-02-12T14:18:28;101071.00;;;31.43;64.11
23223;BME280;11780;13.904;100.620;2023-02-12T14:35:35;101081.84;;;31.40;64.31
23223;BME280;11780;13.904;100.620;2023-02-12T14:40:44;101086.25;;;31.41;64.39
23223;BME280;11780;13.904;100.620;2023-02-12T14:49:00;101076.00;;;31.33;64.63
23223;BME280;11780;13.904;100.620;2023-02-12T14:51:52;101076.00;;;31.33;64.40
23223;BME280;11780;13.904;100.620;2023-02-12T14:54:45;101079.88;;;31.32;64.55
23223;BME280;11780;13.904;100.620;2023-02-12T14:57:38;101079.88;;;31.32;64.42
23223;BME280;11780;13.904;100.620;2023-02-12T15:17:08;101097.09;;;31.28;64.57
23223;BME280;11780;13.904;100.620;2023-02-12T15:19:51;101092.03;;;31.22;64.57
23223;BME280;11780;13.904;100.620;2023-02-12T15:22:31;101097.88;;;31.20;64.72
23223;BME280;11780;13.904;100.620;2023-02-12T15:25:29;101097.06;;;31.20;64.75
23223;BME280;11780;13.904;100.620;2023-02-12T15:28:16;101099.66;;;31.16;64.61
23223;BME280;11780;13.904;100.620;2023-02-12T15:30:48;101100.78;;;31.15;64.77
23223;BME280;11780;13.904;100.620;2023-02-12T15:33:27;101096.56;;;31.18;64.64
23223;BME280;11780;13.904;100.620;2023-02-12T15:35:59;101105.19;;;31.16;64.86
23223;BME280;11780;13.904;100.620;2023-02-12T15:38:37;101103.53;;;31.15;65.14
23223;BME280;11780;13.904;100.620;2023-02-12T15:41:21;101102.41;;;31.16;65.19
23223;BME280;11780;13.904;100.620;2023-02-12T15:43:52;101104.34;;;31.16;65.09
23223;BME280;11780;13.904;100.620;2023-02-12T15:46:22;101110.38;;;31.18;64.93
23223;BME280;11780;13.904;100.620;2023-02-12T15:48:52;101112.34;;;31.17;65.05
23223;BME280;11780;13.904;100.620;2023-02-12T15:51:55;101106.47;;;31.19;65.45
23223;BME280;11780;13.904;100.620;2023-02-12T15:54:26;101108.44;;;31.18;65.50
23223;BME280;11780;13.904;100.620;2023-02-12T15:56:56;101113.13;;;31.18;65.53
23223;BME280;11780;13.904;100.620;2023-02-12T15:59:27;101118.66;;;31.18;65.62
23223;BME280;11780;13.904;100.620;2023-02-12T16:02:02;101110.38;;;31.18;65.46
23223;BME280;11780;13.904;100.620;2023-02-12T16:04:33;101111.84;;;31.15;65.67
23223;BME280;11780;13.904;100.620;2023-02-12T16:07:11;101114.59;;;31.15;65.79
23223;BME280;11780;13.904;100.620;2023-02-12T16:09:43;101116.03;;;31.12;66.14